Weather observations for the past three days for
Seminole, Gaines County Airport
Metric (Imperial)
Date Time (cdt) Wind (kph) Vis. (km) Weather Sky Cond. Temperature (ºC) Relative Humidity Wind Chill (°C) Heat Index (°C) Pressure Precipitation (cm)
Air Dwpt 6 hour altimeter (cm) sea level (mb) 1 hr 3 hr 6 hr
Max. Min.
07 12:15 S 7 16.09 Fair CLR 17.1 5.7 47% 76.66 0.0
07 11:55 Calm 16.09 Fair CLR 16.3 5.6 49% 76.68 0.0
07 11:35 Calm 16.09 Fair CLR 15.3 5.5 52% 76.68 0.0
07 11:15 Calm 16.09 Fair CLR 15 5.5 53% 76.73 0.0
07 10:55 E 7 16.09 Fair CLR 14.5 5.2 54% 76.73 0.0
07 10:35 NE 6 16.09 Fair CLR 14 5.1 55% 76.76 0.0
07 10:15 E 7 16.09 Fair CLR 13.6 5.1 57% 76.76 0.0
07 09:55 E 11 16.09 Fair CLR 13.1 5.1 59% 76.76 0.0
07 09:35 E 11 16.09 Fair CLR 12.2 5.3 63% 76.76 0.0
07 09:15 E 15 16.09 Fair CLR 11.7 4.6 62% 76.76 0.0
07 08:55 E 13 16.09 Fair CLR 11.3 4.6 64% 76.76 0.0
07 08:35 E 13 16.09 Partly Cloudy SCT018 11.1 4.4 64% 76.76 0.0
07 08:15 E 15 16.09 Overcast OVC018 11 4.8 66% 76.73 0.0
07 07:55 NE 15 16.09 Overcast OVC018 10.8 4.3 64% 76.73 0.0
07 07:35 E 13 16.09 Overcast OVC018 10.6 4.5 66% 76.71 0.0
07 07:15 E 15 16.09 Overcast OVC018 10.5 4.6 67% 76.71 0.0
07 06:55 E 17 16.09 Overcast OVC018 10.5 4.7 14.7 10.5 68% 76.68 0.0
07 06:35 E 15 16.09 Overcast OVC018 10.6 5 69% 76.68 0.0
07 06:15 E 19 16.09 Overcast OVC018 10.5 5 69% 76.68 0.0
07 05:55 E 13 16.09 Overcast OVC020 10.6 5.3 70% 76.66 0.0
07 05:35 E 17 16.09 Mostly Cloudy BKN022 10.8 5.2 69% 76.68 0.0
07 05:15 NE 15 16.09 Partly Cloudy SCT022 11 5.3 68% 76.68 0.0
07 04:55 NE 17 16.09 Partly Cloudy SCT032 11.5 5.5 67% 76.66 0.0
07 04:35 E 15 16.09 Overcast OVC032 12 5.5 65% 76.63 0.0
07 04:15 E 15 16.09 Mostly Cloudy BKN032 12.2 5.4 63% 76.63 0.0
07 03:55 NE 19 16.09 Partly Cloudy SCT034 12.3 5.3 63% 76.63 0.0
07 03:35 E 13 16.09 Partly Cloudy SCT032 12.5 5.4 62% 76.61 0.0
07 03:15 NE 15 16.09 Overcast OVC032 12.8 5.3 61% 76.61 0.0
07 02:55 E 13 16.09 Mostly Cloudy BKN032 13.1 5.8 61% 76.61 0.0
07 02:15 E 17 G 28 16.09 Mostly Cloudy BKN032 14.1 6 58% 76.58 0.0
07 01:55 NE 17 16.09 Partly Cloudy SCT032 13.6 6.2 61% 76.58 0.0
07 01:35 E 13 16.09 Fair CLR 14 6 59% 76.5 0.0
07 01:15 E 13 16.09 Fair CLR 14.2 6 58% 76.45 0.0
07 00:55 SE 15 16.09 Fair CLR 14.8 6 23.3 14.8 56% 76.45 0.0
07 00:35 SE 15 16.09 Fair CLR 15.2 6.1 55% 76.45 0.0
07 00:15 SE 17 16.09 Fair CLR 15.7 6.1 53% 76.43 0.0
06 23:55 E 7 16.09 Fair CLR 16 6.4 53% 76.43 0.0
06 23:35 SE 11 16.09 Fair CLR 16.6 6.4 51% 76.4 0.0
06 23:15 SE 20 G 28 16.09 Fair CLR 17.2 6.5 50% 76.35 0.0
06 22:55 E 7 16.09 Fair CLR 17.5 7 50% 76.35 0.0
06 22:35 SE 13 16.09 Fair CLR 18.1 7 48% 76.33 0.0
06 22:15 SE 15 16.09 Fair CLR 18.8 6.6 45% 76.25 0.0
06 21:55 SE 17 G 30 16.09 Fair CLR 19.5 6.1 42% 76.23 0.0
06 21:35 SE 15 16.09 Fair CLR 19.9 5.7 40% 76.2 0.0
06 21:15 SE 11 16.09 Fair CLR 20 5.9 40% 76.17 0.0
06 20:55 E 11 16.09 Fair CLR 20.8 5.6 37% 76.17 0.0
06 20:35 E 9 16.09 Fair CLR 21.7 5.5 35% 76.15 0.0
06 20:15 E 13 16.09 Partly Cloudy SCT120 22.6 5.2 32% 76.12 0.0
06 19:55 SE 19 16.09 Fair CLR 23 5.1 31% 76.1 0.0
06 19:35 SE 15 16.09 Fair CLR 22.6 5.2 32% 76.07 0.0
06 19:15 SE 15 G 26 16.09 Fair CLR 23.3 5.5 32% 76.07 0.0
06 18:55 E 20 G 28 16.09 Fair CLR 23.3 5.4 24.5 17.6 31% 76.07 0.0
06 18:35 E 20 16.09 Fair CLR 23.8 5.5 31% 76.07 0.0
06 18:15 SE 15 16.09 Fair CLR 24 5.3 30% 25 76.07 0.0
06 17:55 SE 19 G 26 16.09 Fair CLR 24.2 5.3 30% 25 76.07 0.0
06 17:35 SE 19 G 30 16.09 Partly Cloudy SCT110 24.4 5.5 30% 25 76.07 0.0
06 17:15 E 13 16.09 Partly Cloudy SCT110 23.9 5.2 30% 25 76.05 0.0
06 16:55 E 17 16.09 Fair CLR 24.3 5.3 29% 25 76.07 0.0
06 16:35 Calm 16.09 Partly Cloudy SCT100 23.6 4.8 30% 76.1 0.0
06 16:15 Calm 16.09 Fair CLR 23.7 4.9 30% 76.12 0.0
06 15:55 SW 9 16.09 Fair CLR 23.2 4.8 30% 76.15 0.0
06 15:35 Calm 16.09 Fair CLR 22.6 4.8 31% 76.17 0.0
06 15:15 Calm 16.09 Fair CLR 22.7 4.8 31% 76.2 0.0
06 14:55 Calm 16.09 Fair CLR 21.2 4.1 33% 76.2 0.0
06 14:35 Calm 16.09 Fair CLR 21.2 5.4 36% 76.23 0.0
06 14:15 NE 7 16.09 Fair CLR 20.2 5.5 38% 76.23 0.0
06 13:55 E 11 16.09 Fair CLR 20.2 5.9 39% 76.25 0.0
06 13:35 E 15 16.09 Fair CLR 19 5.9 42% 76.28 0.0
06 13:15 SE 7 16.09 Fair CLR 18.2 5.8 44% 76.28 0.0
06 12:55 E 7 16.09 Fair CLR 17.3 5.7 17.6 9.2 47% 76.33 0.0
06 12:35 E 13 16.09 Fair CLR 16.7 5.8 49% 76.33 0.0
06 12:15 E 9 16.09 Fair CLR 16.1 5.7 50% 76.33 0.0
06 11:55 E 13 16.09 Fair CLR 15.3 5.7 53% 76.33 0.0
06 11:35 E 9 16.09 Fair CLR 14.3 5.4 55% 76.33 0.0
06 11:15 Calm 16.09 Fair CLR 13.4 5.4 59% 76.35 0.0
06 10:55 Calm 16.09 Fair CLR 12.8 5.4 61% 76.35 0.0
06 10:35 Calm 16.09 Fair CLR 12 5.2 63% 76.33 0.0
06 10:15 Calm 16.09 Fair CLR 11.5 5.3 66% 76.33 0.0
06 09:55 Calm 16.09 Fair CLR 11 5.4 69% 76.33 0.0
06 09:35 Calm 16.09 Fair CLR 10.5 5.2 70% 76.35 0.0
06 09:15 Calm 16.09 Fair CLR 10.1 5.3 72% 76.33 0.0
06 08:55 Calm 16.09 Fair CLR 9.7 5.4 75% 76.3 0.0
06 08:35 Calm 16.09 Fair CLR 9.4 5.2 75% 76.28 0.0
06 08:15 Calm 16.09 Fair CLR 9.2 5.2 76% 76.23 0.0
06 07:55 Calm 16.09 Fair CLR 9.7 5.6 76% 76.23 0.0
06 07:35 Calm 16.09 Fair CLR 10.5 6.3 75% 76.2 0.0
06 07:15 Calm 16.09 Fair CLR 11 6.9 76% 76.17 0.0
06 06:55 Calm 16.09 Fair CLR 12.1 7.6 18.2 12.1 74% 76.17 0.0
06 06:35 Calm 16.09 Fair CLR 13.1 8.1 72% 76.17 0.0
06 05:55 Calm 16.09 Partly Cloudy SCT120 14.7 8.6 67% 76.05 0.0
06 05:35 Calm 16.09 Mostly Cloudy BKN120 15.2 8.6 65% 76.05 0.0
06 05:15 Calm 16.09 Mostly Cloudy BKN120 15.6 9 65% 76.05 0.0
06 04:55 Calm 16.09 Fair CLR 16 8.6 62% 76.05 0.0
06 04:35 Calm 16.09 Fair CLR 16 9.1 64% 76 0.0
06 04:15 Calm 16.09 Fair CLR 16.3 9.1 63% 76 0.0
06 03:55 Calm 16.09 Fair CLR 16.3 8.7 61% 76 0.0
06 03:35 Calm 16.09 Fair CLR 16.1 8.7 62% 75.97 0.0
06 03:15 Calm 16.09 Fair CLR 15.1 9.5 69% 75.97 0.0
06 02:55 Calm 16.09 Fair CLR 16.3 8.7 61% 75.95 0.0
06 02:35 Calm 16.09 Fair CLR 16.6 8.2 58% 75.92 0.0
06 02:15 Calm 16.09 Fair CLR 17.2 7.8 54% 75.92 0.0
06 01:55 Calm 16.09 Fair CLR 17.7 7.5 51% 75.92 0.0
06 01:35 Calm 16.09 Fair CLR 18 7.5 50% 75.92 0.0
06 01:15 Calm 16.09 Fair CLR 17.7 7.6 52% 75.92 0.0
06 00:55 Calm 16.09 Fair CLR 18.5 7.2 26.2 18 48% 75.92 0.0
06 00:15 S 7 16.09 Fair CLR 18.3 7.3 49% 75.87 0.0
05 23:55 W 7 16.09 Fair CLR 19 6.9 46% 75.87 0.0
05 23:35 W 9 16.09 Fair CLR 19.9 6.5 42% 75.87 0.0
05 23:15 NW 11 16.09 Fair CLR 18.9 7 46% 75.84 0.0
05 22:55 W 7 16.09 Fair CLR 19 7 46% 75.87 0.0
05 22:35 Calm 16.09 Fair CLR 19.5 6.7 44% 75.87 0.0
05 22:15 W 7 16.09 Fair CLR 20.1 6 40% 75.84 0.0
05 21:55 W 7 16.09 Fair CLR 20.4 6.1 39% 75.84 0.0
05 21:35 W 7 16.09 Fair CLR 20.5 6 39% 75.84 0.0
05 21:15 W 9 16.09 Fair CLR 21.8 5.4 34% 75.84 0.0
05 20:55 SW 11 16.09 Fair CLR 23.1 5 31% 75.84 0.0
05 20:35 SW 11 16.09 Fair CLR 23.7 4.9 30% 75.84 0.0
05 20:15 W 15 G 30 16.09 Fair CLR 24.2 4.8 29% 25 75.82 0.0
05 19:55 W 26 16.09 Partly Cloudy SCT100 25.2 4.4 26% 25 75.79 0.0
05 19:35 SW 24 G 33 16.09 Partly Cloudy SCT100 26 4 24% 26 75.79 0.0
05 19:15 SW 24 16.09 Fair CLR 26.1 3.4 23% 26 75.79 0.0
05 18:55 SW 17 16.09 Fair CLR 25.2 3.4 26.1 25.1 24% 25 75.79 0.0
05 18:35 SW 24 G 31 16.09 Fair CLR 25.5 3 23% 25 75.79 0.0
05 18:15 SW 20 G 31 16.09 Fair CLR 25.5 2.7 23% 25 75.79 0.0
05 17:55 W 28 G 37 16.09 Fair CLR 25.5 3 23% 25 75.79 0.0
05 17:35 W 30 G 39 16.09 Fair CLR 25.4 2.8 23% 25 75.79 0.0
05 17:15 W 26 G 39 16.09 Fair CLR 25.2 2.9 24% 25 75.82 0.0
05 16:55 W 28 G 37 16.09 Fair CLR 25.5 2.5 22% 25 75.82 0.0
05 16:35 W 31 G 50 16.09 Fair CLR 25.7 2.1 22% 25 75.84 0.0
05 16:15 SW 35 G 46 16.09 Fair and Breezy CLR 26 1.9 21% 26 75.84 0.0
05 15:55 W 28 G 44 16.09 Fair CLR 25.6 1.7 21% 25 75.84 0.0
05 15:35 W 28 G 41 16.09 Fair CLR 25.4 2.9 23% 25 75.87 0.0
05 15:15 W 30 G 39 16.09 Fair CLR 25.5 3.1 23% 25 75.87 0.0
05 14:35 W 24 G 39 16.09 Fair CLR 25.9 3.7 24% 26 75.87 0.0
05 14:15 SW 22 G 35 16.09 Fair CLR 26.1 3 22% 26 75.87 0.0
05 13:55 SW 22 16.09 Fair CLR 25.6 2.9 23% 25 75.87 0.0
05 13:35 W 19 16.09 Fair CLR 25.5 2.8 23% 25 75.92 0.0
05 13:15 SW 13 16.09 Fair CLR 25.5 3 23% 25 75.92 0.0
05 12:55 W 11 16.09 Fair CLR 25.1 3.4 25.3 18.9 25% 25 75.92 0.0
05 12:35 W 11 16.09 Fair CLR 25 3.7 25% 25 75.95 0.0
05 12:15 NW 9 16.09 Fair CLR 25 3.6 25% 25 75.95 0.0
05 11:55 W 15 16.09 Fair CLR 24.6 3.6 26% 25 75.92 0.0
05 11:35 W 13 16.09 Fair CLR 24.1 3.4 26% 25 75.92 0.0
05 11:15 W 13 16.09 Fair CLR 24.1 3.3 26% 25 75.92 0.0
05 10:55 W 11 16.09 Fair CLR 24 3.2 26% 25 75.92 0.0
05 10:35 W 13 16.09 Fair CLR 23.6 3.4 27% 75.92 0.0
05 10:15 W 11 16.09 Fair CLR 23 3.5 28% 75.9 0.0
05 09:55 W 11 16.09 Fair CLR 22.7 3.3 28% 75.92 0.0
05 09:35 W 13 16.09 Fair CLR 22.5 3.3 29% 75.87 0.0
05 09:15 W 13 16.09 Fair CLR 22 3.5 30% 75.87 0.0
05 08:55 W 13 16.09 Fair CLR 21 3.6 32% 75.87 0.0
05 08:35 NW 9 16.09 Fair CLR 20.3 3.4 33% 75.84 0.0
05 08:15 W 11 16.09 Fair CLR 20 3.1 33% 75.82 0.0
05 07:55 W 9 16.09 Fair CLR 19.5 3.5 35% 75.82 0.0
05 07:35 W 13 16.09 Fair CLR 19.4 3.4 35% 75.77 0.0
05 07:15 W 13 16.09 Fair CLR 19.2 3.3 35% 75.74 0.0
05 06:55 W 11 16.09 Fair CLR 19 3.5 20.9 17.6 36% 75.74 0.0
05 06:35 W 9 16.09 Fair CLR 19 3.6 36% 75.72 0.0
05 06:15 SW 11 16.09 Fair CLR 19.3 3.5 35% 75.72 0.0
05 05:55 SW 11 16.09 Fair CLR 19.5 3.7 35% 75.72 0.0
05 05:35 W 11 16.09 Fair CLR 20.5 3 32% 75.72 0.0
05 05:15 W 15 16.09 Fair CLR 19.6 3.9 36% 75.69 0.0
05 04:55 W 13 16.09 Fair CLR 18.6 4.8 40% 75.69 0.0
05 04:35 W 9 16.09 Fair CLR 17.6 5.4 45% 75.69 0.0
05 04:15 SW 11 16.09 Fair CLR 17.9 5 43% 75.69 0.0
05 03:55 SW 11 16.09 Fair CLR 18.7 4.4 39% 75.72 0.0
05 03:35 SW 15 16.09 Fair CLR 19.6 4 36% 75.72 0.0
05 03:15 SW 15 16.09 Fair CLR 19.6 3.9 36% 75.69 0.0
05 02:55 SW 17 16.09 Fair CLR 20.6 3.2 32% 75.69 0.0
05 02:35 SW 17 16.09 Fair CLR 20.6 3.7 33% 75.69 0.0
05 02:15 SW 15 16.09 Fair CLR 20.1 4.2 35% 75.72 0.0
05 01:55 W 9 16.09 Fair CLR 19.6 5 38% 75.74 0.0
05 01:35 SW 9 16.09 Fair CLR 20.1 4.5 36% 75.74 0.0
05 01:15 SW 9 16.09 Fair CLR 20.5 4.2 34% 75.74 0.0
05 00:55 SW 13 16.09 Fair CLR 20.9 3.8 29.3 20.9 33% 75.74 0.0
05 00:35 SW 15 16.09 Fair CLR 21 3.6 32% 75.77 0.0
05 00:15 SW 15 16.09 Fair CLR 21.6 3.1 30% 75.77 0.0
04 23:55 SW 15 16.09 Fair CLR 22.2 2.5 27% 75.79 0.0
04 23:35 W 15 16.09 Fair CLR 22 2.2 27% 75.77 0.0
04 23:15 SW 9 16.09 Fair CLR 22 2.1 27% 75.74 0.0
04 22:55 SW 11 16.09 Fair CLR 22.6 1.4 25% 75.74 0.0
04 22:35 W 13 16.09 Fair CLR 23 1 23% 75.74 0.0
04 22:15 W 15 16.09 Fair CLR 23.2 0.5 22% 75.74 0.0
04 21:55 SW 11 16.09 Fair CLR 23.5 0.1 21% 75.74 0.0
04 21:35 SW 13 16.09 Fair CLR 24.5 -0.5 19% 25 75.72 0.0
04 21:15 W 17 16.09 Fair CLR 25.3 -1.2 17% 25 75.72 0.0
04 20:55 W 17 16.09 Fair CLR 25.6 -1.3 17% 25 75.72 0.0
04 20:35 W 17 16.09 Fair CLR 25.9 -1.5 16% 25 75.69 0.0
04 20:15 W 22 G 33 16.09 Fair CLR 26.9 -2.4 14% 26 75.69 0.0
04 19:55 W 20 16.09 Fair CLR 27.5 -2.5 14% 26 75.67 0.0
04 19:35 W 26 G 33 16.09 Fair CLR 28 -3 13% 27 75.69 0.0
04 19:15 W 26 G 41 16.09 Fair CLR 28.6 -3.4 12% 27 75.72 0.0
04 18:55 SW 31 G 44 16.09 Fair CLR 29 -4.6 29.9 27.6 11% 27 75.72 0.0
04 18:35 SW 33 G 41 16.09 Fair and Breezy CLR 29.5 -2.5 12% 28 75.72 0.0
04 18:15 SW 20 G 28 16.09 Fair CLR 29.3 -0.1 15% 28 75.72 0.0
04 17:55 SW 20 G 33 16.09 Fair CLR 29.5 -0.2 15% 28 75.72 0.0
04 17:35 SW 20 G 30 16.09 Fair CLR 29.6 1.2 16% 28 75.74 0.0
04 17:15 SW 22 G 43 16.09 Fair CLR 29.7 1.4 16% 28 75.74 0.0
04 16:55 SW 30 G 43 16.09 Fair CLR 29.7 1.8 17% 28 75.77 0.0
04 16:35 SW 22 G 37 16.09 Fair CLR 27.8 2.7 20% 27 75.82 0.0
04 16:15 SW 26 G 35 16.09 Fair CLR 27.7 3.7 21% 27 75.84 0.0
04 15:55 SW 26 G 33 16.09 Fair CLR 27.7 3.9 22% 27 75.87 0.0
04 15:35 SW 26 G 37 16.09 Fair CLR 27.9 2.5 19% 27 75.87 0.0
04 15:15 SW 24 G 37 16.09 Fair CLR 27.9 2.7 20% 27 75.9 0.0
04 14:55 SW 26 G 37 16.09 Fair CLR 27.6 3.2 21% 26 75.92 0.0
04 14:35 W 30 G 35 16.09 Fair CLR 28.3 2.4 19% 27 75.92 0.0
04 14:15 SW 22 G 35 16.09 Fair CLR 28.6 2.7 19% 27 75.92 0.0
04 13:55 SW 28 G 35 16.09 Fair CLR 29.3 4 20% 28 75.92 0.0
04 13:35 SW 20 G 33 16.09 Fair CLR 29 6.2 24% 28 75.95 0.0
04 13:15 SW 22 G 31 16.09 Fair CLR 28.2 8.1 28% 27 75.95 0.0
04 12:55 SW 20 G 31 16.09 Fair CLR 28.5 7.7 28.8 13.5 27% 27 75.97 0.0
04 12:35 W 22 16.09 Fair CLR 28.7 8.5 28% 28 76 0.0
Date Time (cdt) Wind (kph) Vis. (km) Weather Sky Cond. Air Dwpt Max. Min. Relative Humidity Wind Chill (°C) Heat Index (°C) altimeter (cm) sea level (mb) 1 hr 3 hr 6 hr
6 hour
Temperature (ºC) Pressure Precipitation (cm)